Time;durP1;ratioP1;P1;durP2;ratioP2;P2;SDS_P1;SDS_P2;PMS_P1;PMS_P2;Temp;Humidity;BMP_temperature;BMP_pressure;BME280_temperature;BME280_humidity;BME280_pressure;Samples;Min_cycle;Max_cycle;Signal;HPM_P1;HPM_P2
2021/11/06 00:01:45;;;;;;;6.15;2.78;;;24.50;99.90;;;;;;5016029;28;20072;-79
2021/11/06 00:04:13;;;;;;;3.72;3.20;;;24.50;99.90;;;;;;5015825;28;20390;-82
2021/11/06 00:06:44;;;;;;;5.72;2.53;;;24.60;99.90;;;;;;5014218;28;20129;-82
2021/11/06 00:09:12;;;;;;;5.75;2.65;;;24.60;99.90;;;;;;5020012;28;20028;-80
2021/11/06 00:11:40;;;;;;;6.35;2.30;;;24.80;99.90;;;;;;5014816;28;20036;-81
2021/11/06 00:14:07;;;;;;;5.18;2.33;;;24.90;99.90;;;;;;5013773;28;20026;-82
2021/11/06 00:16:34;;;;;;;4.53;2.60;;;24.80;99.90;;;;;;5014713;28;20403;-82
2021/11/06 00:19:02;;;;;;;4.65;3.10;;;24.70;99.90;;;;;;5014283;28;20049;-81
2021/11/06 00:21:29;;;;;;;5.95;3.15;;;25.00;99.90;;;;;;5014626;28;20443;-82
2021/11/06 00:23:56;;;;;;;3.75;2.50;;;25.10;99.90;;;;;;5014500;28;20033;-82
2021/11/06 00:26:24;;;;;;;3.55;2.67;;;25.10;99.90;;;;;;5014724;28;20101;-83
2021/11/06 00:28:51;;;;;;;3.88;2.55;;;24.60;99.90;;;;;;5014524;28;20128;-82
2021/11/06 00:31:18;;;;;;;3.97;2.72;;;25.00;99.90;;;;;;5014510;28;20054;-82
2021/11/06 00:33:46;;;;;;;4.68;2.80;;;25.20;99.90;;;;;;5014402;28;20368;-82
2021/11/06 00:36:13;;;;;;;5.00;3.20;;;25.20;99.90;;;;;;5013176;28;20026;-82
2021/11/06 00:38:40;;;;;;;4.18;2.88;;;25.00;99.90;;;;;;5013042;28;20061;-82
2021/11/06 00:41:08;;;;;;;5.22;2.70;;;25.20;99.90;;;;;;5015058;28;20072;-83
2021/11/06 00:43:35;;;;;;;5.70;3.30;;;25.30;99.90;;;;;;5014692;28;20026;-83
2021/11/06 00:46:03;;;;;;;5.25;3.30;;;25.40;99.90;;;;;;5014713;28;20028;-83
2021/11/06 00:48:30;;;;;;;4.13;2.70;;;25.40;99.90;;;;;;5013159;28;20505;-82
2021/11/06 00:50:58;;;;;;;4.10;2.72;;;25.30;99.90;;;;;;5012750;28;20466;-82
2021/11/06 00:53:25;;;;;;;5.22;2.78;;;25.30;99.90;;;;;;5014009;28;20057;-82
2021/11/06 00:55:53;;;;;;;4.30;2.50;;;25.30;99.90;;;;;;5012967;28;20042;-81
2021/11/06 00:58:20;;;;;;;5.80;2.53;;;25.30;99.90;;;;;;5013163;28;20571;-81
2021/11/06 01:00:47;;;;;;;6.13;2.60;;;25.30;99.90;;;;;;5013130;28;20022;-83
2021/11/06 01:03:15;;;;;;;4.82;2.70;;;25.10;99.90;;;;;;5013749;28;20428;-79
2021/11/06 01:05:42;;;;;;;3.72;2.25;;;25.10;99.90;;;;;;5014290;28;20050;-82
2021/11/06 01:08:10;;;;;;;3.85;2.50;;;25.10;99.90;;;;;;5014894;28;20420;-81
2021/11/06 01:10:37;;;;;;;3.80;2.20;;;25.00;99.90;;;;;;5012418;28;20033;-84
2021/11/06 01:13:05;;;;;;;4.80;2.30;;;24.80;99.90;;;;;;5014105;28;20066;-83
2021/11/06 01:15:32;;;;;;;5.75;2.60;;;25.20;99.90;;;;;;5012831;28;20026;-83
2021/11/06 01:17:59;;;;;;;4.30;2.90;;;25.60;99.90;;;;;;5014237;28;20079;-83
2021/11/06 01:20:27;;;;;;;5.22;2.63;;;25.50;99.90;;;;;;5012898;28;20049;-82
2021/11/06 01:22:55;;;;;;;5.07;2.60;;;25.70;99.90;;;;;;5012678;28;20502;-83
2021/11/06 01:25:22;;;;;;;7.00;2.90;;;25.50;99.90;;;;;;4997183;28;20030;-82
2021/11/06 01:27:50;;;;;;;5.72;2.70;;;25.50;99.90;;;;;;5017361;28;20030;-81
2021/11/06 01:30:18;;;;;;;5.97;3.40;;;25.70;99.90;;;;;;5017381;28;20037;-81
2021/11/06 01:32:46;;;;;;;4.70;2.83;;;25.40;99.90;;;;;;5017967;28;20036;-82
2021/11/06 01:35:15;;;;;;;5.22;2.70;;;25.70;99.90;;;;;;5017465;28;20018;-82
2021/11/06 01:37:43;;;;;;;6.07;3.00;;;25.40;99.90;;;;;;5000291;28;20084;-82
2021/11/06 01:40:13;;;;;;;6.53;3.33;;;25.50;99.90;;;;;;5017884;28;20021;-82
2021/11/06 01:42:42;;;;;;;6.80;2.80;;;25.50;99.90;;;;;;5016558;28;20569;-83
2021/11/06 01:45:12;;;;;;;5.60;2.90;;;25.40;99.90;;;;;;5016244;28;20040;-83
2021/11/06 01:47:39;;;;;;;4.00;2.80;;;25.30;99.90;;;;;;5016324;28;20030;-82
2021/11/06 01:50:08;;;;;;;5.10;2.30;;;25.60;99.90;;;;;;5017521;28;20446;-82
2021/11/06 01:52:37;;;;;;;5.60;2.40;;;26.00;99.90;;;;;;5015967;28;20033;-83
2021/11/06 01:55:06;;;;;;;8.18;2.75;;;26.00;99.90;;;;;;5017341;28;20580;-82
2021/11/06 01:57:34;;;;;;;3.88;2.60;;;26.10;99.90;;;;;;5017685;28;20514;-82
2021/11/06 02:00:06;;;;;;;6.22;2.92;;;26.00;99.90;;;;;;5016487;28;20053;-82
2021/11/06 02:02:34;;;;;;;5.50;2.50;;;26.20;99.90;;;;;;5016310;28;20018;-82
2021/11/06 02:05:01;;;;;;;7.82;2.97;;;25.60;99.90;;;;;;5015649;28;20179;-83
2021/11/06 02:07:29;;;;;;;3.35;2.28;;;25.60;99.90;;;;;;5015800;28;20053;-83
2021/11/06 02:09:56;;;;;;;3.88;2.55;;;25.90;99.90;;;;;;5017252;28;20479;-82
2021/11/06 02:12:25;;;;;;;4.20;2.47;;;25.50;99.90;;;;;;5016996;28;20399;-82
2021/11/06 02:14:53;;;;;;;3.97;2.20;;;25.30;99.90;;;;;;5015537;28;20025;-83
2021/11/06 02:17:20;;;;;;;6.30;2.72;;;25.50;99.90;;;;;;5016896;28;20022;-81
2021/11/06 02:19:48;;;;;;;5.72;2.30;;;25.90;99.90;;;;;;5017424;28;20014;-83
2021/11/06 02:22:15;;;;;;;4.30;2.65;;;25.90;99.90;;;;;;5015888;28;20072;-82
2021/11/06 02:24:43;;;;;;;5.78;2.85;;;26.10;99.90;;;;;;5017579;28;20026;-82
2021/11/06 02:27:10;;;;;;;5.47;2.50;;;26.50;99.90;;;;;;5016754;28;20026;-82
2021/11/06 02:29:37;;;;;;;7.47;2.80;;;26.60;99.90;;;;;;5015108;28;20021;-82
2021/11/06 02:32:07;;;;;;;5.57;3.17;;;26.30;99.90;;;;;;5017228;28;20026;-82
2021/11/06 02:34:35;;;;;;;3.78;2.50;;;26.30;99.90;;;;;;5015957;28;20026;-83
2021/11/06 02:37:03;;;;;;;5.07;2.30;;;26.10;99.90;;;;;;5017052;28;20033;-83
2021/11/06 02:39:30;;;;;;;4.45;2.30;;;26.00;99.90;;;;;;5015430;28;20076;-83
2021/11/06 02:42:04;;;;;;;4.60;2.67;;;26.20;99.90;;;;;;5015913;28;20605;-81
2021/11/06 02:44:31;;;;;;;6.68;3.03;;;26.50;99.90;;;;;;5015848;28;20038;-82
2021/11/06 02:47:00;;;;;;;4.22;2.60;;;26.20;99.90;;;;;;5017321;28;20037;-80
2021/11/06 02:49:28;;;;;;;5.13;2.97;;;26.40;99.90;;;;;;5017119;28;20022;-82
2021/11/06 02:51:56;;;;;;;5.07;2.67;;;26.40;99.90;;;;;;5016956;28;20029;-81
2021/11/06 02:54:26;;;;;;;5.57;3.17;;;26.50;99.90;;;;;;5015468;28;20029;-81
2021/11/06 02:56:54;;;;;;;4.95;2.78;;;26.30;99.90;;;;;;5017033;28;20147;-83
2021/11/06 02:59:21;;;;;;;4.88;2.80;;;26.60;99.90;;;;;;5015504;28;20033;-82
2021/11/06 03:01:49;;;;;;;4.93;2.85;;;26.60;99.90;;;;;;5015157;28;20441;-83
2021/11/06 03:04:17;;;;;;;4.95;2.40;;;26.40;99.90;;;;;;4999130;28;20509;-80
2021/11/06 03:06:46;;;;;;;2.53;2.15;;;26.20;99.90;;;;;;5016058;28;20054;-80
2021/11/06 03:09:14;;;;;;;6.30;2.95;;;26.10;99.90;;;;;;4999088;28;20038;-82
2021/11/06 03:11:42;;;;;;;4.10;2.55;;;26.20;99.90;;;;;;5015209;28;20499;-80
2021/11/06 03:14:11;;;;;;;4.45;2.70;;;26.40;99.90;;;;;;5014284;28;20104;-82
2021/11/06 03:16:40;;;;;;;3.83;2.28;;;26.30;99.90;;;;;;5016337;28;20588;-81
2021/11/06 03:19:08;;;;;;;5.40;2.60;;;26.30;99.90;;;;;;5015444;28;20034;-81
2021/11/06 03:21:36;;;;;;;5.38;2.00;;;26.60;99.90;;;;;;5016863;28;20036;-82
2021/11/06 03:24:05;;;;;;;3.28;2.17;;;27.00;99.90;;;;;;5015099;28;20072;-82
2021/11/06 03:26:32;;;;;;;3.78;2.38;;;26.90;99.90;;;;;;5015058;28;20387;-82
2021/11/06 03:29:01;;;;;;;6.15;2.50;;;26.50;99.90;;;;;;5016664;28;20475;-82
2021/11/06 03:31:28;;;;;;;5.85;2.55;;;26.50;99.90;;;;;;5014849;28;20030;-82
2021/11/06 03:33:56;;;;;;;3.70;2.53;;;26.70;99.90;;;;;;5016310;28;20069;-82
2021/11/06 03:36:23;;;;;;;4.32;2.40;;;27.00;99.90;;;;;;5016137;28;20053;-82
2021/11/06 03:38:51;;;;;;;6.43;2.40;;;27.30;99.90;;;;;;5016023;28;20010;-81
2021/11/06 03:41:19;;;;;;;4.35;2.45;;;27.30;99.90;;;;;;5014982;28;20026;-81
2021/11/06 03:43:46;;;;;;;6.95;2.28;;;27.20;99.90;;;;;;5015062;28;20029;-82
2021/11/06 03:46:14;;;;;;;2.90;1.98;;;27.10;99.90;;;;;;5014902;28;20506;-81
2021/11/06 03:48:41;;;;;;;5.18;2.33;;;27.00;99.90;;;;;;5013955;28;20037;-82
2021/11/06 03:51:11;;;;;;;;;;;27.30;99.90;;;;;;5015087;28;20025;-80
2021/11/06 03:53:38;;;;;;;3.60;2.70;;;27.30;99.90;;;;;;5016104;28;19910;-80
2021/11/06 03:56:06;;;;;;;4.90;2.38;;;26.90;99.90;;;;;;5014696;28;20073;-82
2021/11/06 03:58:33;;;;;;;5.70;2.90;;;26.80;99.90;;;;;;5015862;28;20026;-80
2021/11/06 04:01:03;;;;;;;3.72;2.20;;;27.20;99.90;;;;;;5014601;28;20018;-80
2021/11/06 04:03:35;;;;;;;4.82;2.60;;;27.00;99.90;;;;;;5015828;28;20515;-82
2021/11/06 04:06:04;;;;;;;5.72;2.10;;;26.80;99.90;;;;;;5014282;28;20419;-82
2021/11/06 04:08:33;;;;;;;5.95;2.90;;;26.60;99.90;;;;;;5015516;28;20095;-82
2021/11/06 04:11:00;;;;;;;4.13;2.40;;;26.60;99.90;;;;;;5014610;28;20026;-82
2021/11/06 04:13:28;;;;;;;5.63;2.70;;;26.60;99.90;;;;;;5015691;28;20442;-83
2021/11/06 04:15:55;;;;;;;3.58;2.53;;;26.60;99.90;;;;;;5015916;28;20022;-82
2021/11/06 04:18:23;;;;;;;4.53;2.40;;;26.80;99.90;;;;;;5017127;28;20072;-82
2021/11/06 04:20:51;;;;;;;5.45;2.55;;;26.80;99.90;;;;;;5016272;28;20418;-83
2021/11/06 04:23:18;;;;;;;5.93;2.50;;;27.00;99.90;;;;;;5014341;28;20241;-81
2021/11/06 04:25:47;;;;;;;4.03;2.47;;;27.10;99.90;;;;;;5014133;28;20076;-83
2021/11/06 04:28:19;;;;;;;6.47;2.83;;;26.50;99.90;;;;;;4997953;28;20080;-82
2021/11/06 04:30:46;;;;;;;7.38;2.78;;;26.50;99.90;;;;;;5014116;28;20026;-82
2021/11/06 04:33:14;;;;;;;5.10;2.92;;;26.50;99.90;;;;;;5016010;28;20018;-82
2021/11/06 04:35:41;;;;;;;4.10;2.58;;;26.70;99.90;;;;;;5013931;28;20026;-82
2021/11/06 04:38:09;;;;;;;5.80;2.45;;;27.00;99.90;;;;;;5013938;28;20026;-82
2021/11/06 04:40:36;;;;;;;6.15;2.78;;;26.80;99.90;;;;;;5014680;28;20029;-83
2021/11/06 04:43:04;;;;;;;8.32;2.70;;;26.40;99.90;;;;;;5014140;28;20030;-82
2021/11/06 04:45:31;;;;;;;6.57;2.80;;;26.10;99.90;;;;;;5014347;28;20034;-82
2021/11/06 04:48:00;;;;;;;7.07;2.72;;;26.00;99.90;;;;;;5013975;28;20030;-81
2021/11/06 04:50:28;;;;;;;6.28;2.75;;;25.90;99.90;;;;;;5013597;28;20026;-81
2021/11/06 04:52:55;;;;;;;7.32;2.50;;;26.50;99.90;;;;;;4997281;28;20040;-82
2021/11/06 04:55:23;;;;;;;4.25;2.03;;;26.80;99.90;;;;;;5013572;28;20032;-81
2021/11/06 04:57:50;;;;;;;6.75;2.95;;;26.90;99.90;;;;;;5014974;28;20086;-81
2021/11/06 05:00:18;;;;;;;4.95;3.10;;;26.70;99.90;;;;;;5014791;28;20097;-80
2021/11/06 05:02:51;;;;;;;4.78;3.30;;;26.50;99.90;;;;;;5018663;28;20383;-81
2021/11/06 05:05:23;;;;;;;10.70;3.17;;;26.50;99.90;;;;;;5018285;28;20034;-80
2021/11/06 05:07:51;;;;;;;6.90;3.25;;;26.40;99.90;;;;;;5017684;28;20030;-81
2021/11/06 05:10:19;;;;;;;10.68;3.10;;;26.50;99.90;;;;;;5016812;28;20030;-81
2021/11/06 05:12:48;;;;;;;6.80;2.85;;;27.00;99.90;;;;;;5016418;28;20029;-80
2021/11/06 05:15:16;;;;;;;5.03;2.90;;;26.90;99.90;;;;;;5016655;28;20093;-81
2021/11/06 05:17:44;;;;;;;5.30;2.50;;;26.90;99.90;;;;;;5018653;28;20290;-81
2021/11/06 05:20:11;;;;;;;5.90;2.70;;;26.60;99.90;;;;;;5017034;28;20507;-81
2021/11/06 05:22:39;;;;;;;6.20;2.40;;;26.70;99.90;;;;;;5017044;28;20026;-80
2021/11/06 05:25:09;;;;;;;8.57;3.03;;;26.90;99.90;;;;;;5017050;28;20052;-82
2021/11/06 05:27:37;;;;;;;5.97;2.67;;;26.40;99.90;;;;;;5018558;28;20036;-81
2021/11/06 05:30:10;;;;;;;8.48;2.80;;;26.20;99.90;;;;;;5018682;28;20026;-81
2021/11/06 05:32:38;;;;;;;8.40;3.22;;;26.30;99.90;;;;;;5017274;28;20036;-80
2021/11/06 05:35:07;;;;;;;5.43;2.78;;;26.60;99.90;;;;;;5016983;28;20080;-81
2021/11/06 05:37:35;;;;;;;6.72;2.70;;;26.70;99.90;;;;;;5017175;28;20557;-80
2021/11/06 05:40:04;;;;;;;6.20;3.28;;;26.60;99.90;;;;;;5000737;28;20030;-81
2021/11/06 05:42:32;;;;;;;7.30;3.08;;;26.60;99.90;;;;;;5018232;28;20018;-81
2021/11/06 05:45:01;;;;;;;8.10;3.00;;;26.80;99.90;;;;;;5016412;28;20022;-81
2021/11/06 05:47:28;;;;;;;8.52;3.55;;;26.60;99.90;;;;;;5017035;28;20030;-80
2021/11/06 05:49:55;;;;;;;9.80;2.80;;;26.40;99.90;;;;;;5017662;28;20436;-81
2021/11/06 05:52:23;;;;;;;10.10;2.92;;;26.30;99.90;;;;;;5016727;28;20021;-80
2021/11/06 05:54:50;;;;;;;7.55;2.90;;;26.00;99.90;;;;;;5018641;28;20030;-80
2021/11/06 05:57:18;;;;;;;6.45;2.83;;;26.10;99.90;;;;;;5016428;28;20018;-81
2021/11/06 05:59:45;;;;;;;10.13;3.25;;;26.20;99.90;;;;;;5016276;28;20391;-81
2021/11/06 06:02:13;;;;;;;9.93;3.70;;;26.20;99.90;;;;;;5016683;28;20028;-81
2021/11/06 06:04:41;;;;;;;9.63;3.90;;;26.30;99.90;;;;;;5017724;28;20029;-81
2021/11/06 06:07:08;;;;;;;9.80;3.45;;;26.40;99.90;;;;;;5017905;28;20443;-81
2021/11/06 06:09:36;;;;;;;9.00;3.72;;;26.40;99.90;;;;;;5017926;28;20088;-80
2021/11/06 06:12:03;;;;;;;9.85;3.38;;;26.30;99.90;;;;;;5017204;28;20026;-80
2021/11/06 06:14:30;;;;;;;8.60;4.18;;;26.00;99.90;;;;;;5015714;28;20030;-81
2021/11/06 06:16:58;;;;;;;8.82;3.53;;;25.60;99.90;;;;;;5016378;28;20029;-80
2021/11/06 06:19:26;;;;;;;9.68;3.40;;;25.70;99.90;;;;;;5016493;28;20039;-80
2021/11/06 06:21:54;;;;;;;8.20;3.28;;;25.50;99.90;;;;;;5017921;28;20053;-79
2021/11/06 06:24:22;;;;;;;7.05;3.28;;;25.40;99.90;;;;;;5017819;28;20386;-81
2021/11/06 06:26:50;;;;;;;8.52;3.28;;;25.80;99.90;;;;;;5017877;28;20022;-80
2021/11/06 06:29:17;;;;;;;9.75;3.33;;;26.10;99.90;;;;;;5016416;28;20021;-80
2021/11/06 06:31:46;;;;;;;9.77;3.95;;;26.00;99.90;;;;;;5015694;28;20117;-81
2021/11/06 06:34:14;;;;;;;11.82;4.05;;;25.70;99.90;;;;;;5015133;28;20037;-81
2021/11/06 06:36:41;;;;;;;9.70;3.78;;;25.90;99.90;;;;;;5017688;28;20033;-82
2021/11/06 06:39:09;;;;;;;9.30;4.13;;;25.80;99.90;;;;;;5016629;28;20034;-82
2021/11/06 06:41:36;;;;;;;11.85;3.58;;;25.70;99.90;;;;;;5017755;28;20166;-80
2021/11/06 06:44:04;;;;;;;8.15;3.08;;;25.50;99.90;;;;;;5016870;28;20026;-83
2021/11/06 06:46:31;;;;;;;8.30;3.30;;;25.20;99.90;;;;;;5016568;28;20502;-81
2021/11/06 06:48:58;;;;;;;6.25;3.08;;;24.90;99.90;;;;;;5017402;28;20026;-81
2021/11/06 06:51:26;;;;;;;9.07;4.07;;;24.80;99.90;;;;;;5016368;28;20121;-81
2021/11/06 06:53:54;;;;;;;8.32;4.03;;;24.20;99.90;;;;;;5017178;28;20535;-81
2021/11/06 06:56:21;;;;;;;8.98;4.43;;;23.70;99.90;;;;;;5015839;28;20025;-82
2021/11/06 06:58:48;;;;;;;9.43;4.10;;;23.30;99.90;;;;;;5015750;28;20029;-81
2021/11/06 07:01:16;;;;;;;12.20;5.00;;;23.10;99.90;;;;;;5015967;28;20108;-81
2021/11/06 07:03:43;;;;;;;12.90;4.95;;;22.70;99.90;;;;;;5016276;28;20466;-80
2021/11/06 07:06:11;;;;;;;11.88;5.28;;;22.40;99.90;;;;;;5015542;28;20054;-80
2021/11/06 07:08:38;;;;;;;10.25;4.70;;;22.40;99.90;;;;;;5016881;28;20026;-81
2021/11/06 07:11:07;;;;;;;10.18;4.40;;;22.30;99.90;;;;;;5019582;28;20025;-82
2021/11/06 07:13:36;;;;;;;10.98;4.30;;;22.30;99.90;;;;;;5016316;28;20022;-82
2021/11/06 07:16:05;;;;;;;11.93;4.85;;;22.30;99.90;;;;;;5016319;28;20029;-81
2021/11/06 07:18:32;;;;;;;12.68;5.30;;;22.40;99.90;;;;;;5016817;28;20026;-81
2021/11/06 07:21:00;;;;;;;10.32;4.28;;;22.20;99.90;;;;;;5018649;28;20036;-81
2021/11/06 07:23:28;;;;;;;13.93;4.68;;;22.10;99.90;;;;;;5000176;28;20026;-81
2021/11/06 07:26:00;;;;;;;9.25;4.40;;;22.00;99.90;;;;;;5016677;28;20057;-81
2021/11/06 07:28:30;;;;;;;14.55;5.45;;;21.90;99.90;;;;;;5016369;28;20022;-80
2021/11/06 07:30:59;;;;;;;10.25;5.15;;;21.70;99.90;;;;;;5016256;28;20114;-81
2021/11/06 07:33:27;;;;;;;11.50;5.18;;;21.70;99.90;;;;;;5015710;28;20076;-81
2021/11/06 07:35:54;;;;;;;12.23;5.22;;;21.70;99.90;;;;;;5016893;28;20083;-81
2021/11/06 07:38:21;;;;;;;12.88;5.57;;;21.60;99.90;;;;;;5015805;28;20045;-81
2021/11/06 07:40:49;;;;;;;10.90;5.47;;;21.40;99.90;;;;;;5015610;28;20030;-83
2021/11/06 07:43:17;;;;;;;16.17;6.03;;;21.40;99.90;;;;;;5016482;28;20022;-79
2021/11/06 07:45:44;;;;;;;13.70;6.18;;;21.30;99.90;;;;;;5018341;28;20467;-80
2021/11/06 07:48:11;;;;;;;14.65;6.45;;;21.30;99.90;;;;;;5016549;28;20104;-80
2021/11/06 07:50:39;;;;;;;12.18;6.50;;;21.20;99.90;;;;;;5016917;28;20043;-79
2021/11/06 07:53:07;;;;;;;10.77;6.85;;;21.20;99.90;;;;;;5016747;28;20030;-81
2021/11/06 07:55:36;;;;;;;12.43;6.47;;;21.10;99.90;;;;;;5002562;28;20399;-81
2021/11/06 07:58:03;;;;;;;16.95;6.95;;;21.10;99.90;;;;;;5000984;28;20022;-80
2021/11/06 08:00:31;;;;;;;12.93;7.10;;;21.00;99.90;;;;;;5018192;28;20087;-82
2021/11/06 08:02:58;;;;;;;9.77;7.55;;;21.00;99.90;;;;;;5017500;28;20026;-82
2021/11/06 08:05:26;;;;;;;12.02;8.57;;;20.90;99.90;;;;;;5015741;28;20041;-80
2021/11/06 08:07:53;;;;;;;14.05;8.35;;;20.90;99.90;;;;;;5016782;28;20030;-81
2021/11/06 08:10:20;;;;;;;13.93;8.70;;;20.80;99.90;;;;;;5017273;28;20029;-80
2021/11/06 08:12:48;;;;;;;12.55;8.18;;;20.80;99.90;;;;;;5018089;28;20497;-82
2021/11/06 08:15:16;;;;;;;18.38;9.07;;;20.80;99.90;;;;;;5016618;28;20029;-80
2021/11/06 08:17:44;;;;;;;16.05;8.93;;;20.70;99.90;;;;;;5015317;28;20049;-82
2021/11/06 08:20:12;;;;;;;12.90;7.75;;;20.70;99.90;;;;;;5027598;28;20038;-82
2021/11/06 08:22:40;;;;;;;13.30;8.07;;;20.70;99.90;;;;;;5016296;28;20026;-82
2021/11/06 08:25:15;;;;;;;19.98;9.18;;;20.60;99.90;;;;;;5017392;28;20013;-80
2021/11/06 08:27:46;;;;;;;15.43;8.50;;;20.60;99.90;;;;;;5016664;28;20141;-80
2021/11/06 08:30:18;;;;;;;16.45;8.55;;;20.40;99.90;;;;;;5019204;28;20025;-79
2021/11/06 08:32:47;;;;;;;14.27;9.32;;;20.40;99.90;;;;;;5016987;28;20428;-81
2021/11/06 08:35:15;;;;;;;18.15;10.40;;;20.40;99.90;;;;;;5017678;28;20022;-80
2021/11/06 08:37:43;;;;;;;16.17;10.00;;;20.30;99.90;;;;;;5018386;28;20054;-81
2021/11/06 08:40:12;;;;;;;15.02;9.65;;;20.30;99.90;;;;;;5018409;28;20022;-81
2021/11/06 08:42:40;;;;;;;15.68;10.35;;;20.20;99.90;;;;;;5016620;28;20549;-81
2021/11/06 08:45:11;;;;;;;18.23;10.70;;;20.30;99.90;;;;;;5016518;28;20360;-81
2021/11/06 08:47:41;;;;;;;15.23;10.93;;;20.20;99.90;;;;;;5016019;28;20087;-81
2021/11/06 08:50:13;;;;;;;18.55;10.93;;;20.20;99.90;;;;;;5000904;28;20491;-81
2021/11/06 08:52:40;;;;;;;15.95;10.00;;;20.20;99.90;;;;;;5015875;28;20626;-81
2021/11/06 08:55:08;;;;;;;15.80;10.75;;;20.20;99.90;;;;;;5016354;28;20030;-79
2021/11/06 08:57:38;;;;;;;14.48;10.45;;;20.20;99.90;;;;;;5017386;28;20029;-82
2021/11/06 09:00:11;;;;;;;19.27;10.05;;;20.20;99.90;;;;;;5000395;28;20098;-82
2021/11/06 09:02:39;;;;;;;15.40;10.27;;;20.20;99.90;;;;;;5017576;28;20503;-82
2021/11/06 09:05:09;;;;;;;14.52;9.88;;;20.20;99.90;;;;;;5017648;28;20109;-81
2021/11/06 09:07:37;;;;;;;16.08;10.23;;;20.20;99.90;;;;;;5016045;28;20145;-79
2021/11/06 09:10:14;;;;;;;17.63;10.38;;;20.20;99.90;;;;;;5017992;28;20060;-82
2021/11/06 09:12:46;;;;;;;12.43;9.77;;;20.20;99.90;;;;;;5018486;28;20034;-80
2021/11/06 09:15:13;;;;;;;14.38;10.23;;;20.20;99.90;;;;;;5016613;28;20081;-81
2021/11/06 09:17:41;;;;;;;16.67;9.80;;;20.10;99.90;;;;;;5017307;28;20026;-81
2021/11/06 09:20:09;;;;;;;16.13;10.68;;;20.20;99.90;;;;;;5015509;28;20022;-82
2021/11/06 09:22:38;;;;;;;15.90;10.07;;;20.20;99.90;;;;;;5018542;28;20076;-82
2021/11/06 09:25:07;;;;;;;19.08;10.57;;;20.10;99.90;;;;;;5016991;28;20042;-82
2021/11/06 09:27:35;;;;;;;13.05;10.40;;;20.10;99.90;;;;;;5016192;28;20057;-82
2021/11/06 09:30:06;;;;;;;18.55;10.43;;;20.10;99.90;;;;;;4999723;28;20066;-83
2021/11/06 09:32:36;;;;;;;20.98;9.75;;;20.00;99.90;;;;;;5016359;28;20030;-81
2021/11/06 09:35:04;;;;;;;16.85;10.57;;;20.10;99.90;;;;;;5015813;28;20038;-81
2021/11/06 09:37:31;;;;;;;16.20;10.52;;;20.20;99.90;;;;;;5016525;28;20097;-83
2021/11/06 09:39:59;;;;;;;17.27;11.75;;;20.10;99.90;;;;;;5015017;28;20372;-82
2021/11/06 09:42:28;;;;;;;16.58;11.10;;;20.10;99.90;;;;;;5018138;28;20030;-82
2021/11/06 09:44:58;;;;;;;16.35;11.30;;;20.00;99.90;;;;;;5017181;28;20084;-81
2021/11/06 09:47:26;;;;;;;14.30;10.98;;;20.00;99.90;;;;;;5016759;28;20053;-82
2021/11/06 09:49:54;;;;;;;21.20;11.98;;;20.00;99.90;;;;;;5018777;28;20042;-84
2021/11/06 09:52:26;;;;;;;19.02;11.63;;;20.00;99.90;;;;;;5020160;28;20430;-82
2021/11/06 09:54:53;;;;;;;17.77;11.60;;;19.90;99.90;;;;;;5019813;28;20116;-80
2021/11/06 09:57:21;;;;;;;16.80;11.43;;;20.00;99.90;;;;;;5019856;28;20498;-82
2021/11/06 09:59:50;;;;;;;18.85;11.43;;;20.00;99.90;;;;;;5021733;28;20018;-80
2021/11/06 10:02:18;;;;;;;15.30;11.02;;;20.00;99.90;;;;;;5019285;28;20370;-80
2021/11/06 10:04:45;;;;;;;17.55;11.07;;;20.00;99.90;;;;;;5018997;28;20487;-79
2021/11/06 10:07:26;;;;;;;15.65;10.60;;;19.90;99.90;;;;;;5019828;28;20046;-80
2021/11/06 10:10:09;;;;;;;14.75;10.65;;;19.90;99.90;;;;;;5020457;28;20021;-82
2021/11/06 10:12:53;;;;;;;14.85;11.45;;;20.00;99.90;;;;;;5019419;28;20038;-83
2021/11/06 10:15:24;;;;;;;16.23;12.40;;;19.90;99.90;;;;;;5020892;28;20022;-82
2021/11/06 10:17:51;;;;;;;;;;;19.90;99.90;;;;;;5022268;28;20108;-84
2021/11/06 10:20:25;;;;;;;19.38;11.57;;;19.90;99.90;;;;;;5019621;28;20041;-83
2021/11/06 10:22:56;;;;;;;12.13;10.80;;;19.90;99.90;;;;;;5019585;28;20050;-82
2021/11/06 10:25:24;;;;;;;15.60;10.88;;;19.90;99.90;;;;;;5020853;28;20033;-81
2021/11/06 10:28:03;;;;;;;19.52;10.73;;;19.90;99.90;;;;;;5018727;28;20037;-82
2021/11/06 10:30:35;;;;;;;16.63;11.05;;;19.90;99.90;;;;;;5020780;28;20026;-83
2021/11/06 10:33:10;;;;;;;15.43;11.15;;;20.00;99.90;;;;;;5019010;28;20030;-82
2021/11/06 10:35:40;;;;;;;20.38;12.20;;;19.90;99.90;;;;;;5017856;28;20061;-81
2021/11/06 10:38:21;;;;;;;17.17;11.23;;;19.90;99.90;;;;;;5020306;28;20018;-82
2021/11/06 10:41:08;;;;;;;17.65;10.25;;;19.90;99.90;;;;;;5018191;28;20026;-83
2021/11/06 10:43:37;;;;;;;17.55;11.10;;;19.90;99.90;;;;;;5018338;28;20475;-83
2021/11/06 10:46:10;;;;;;;15.65;11.55;;;19.90;99.90;;;;;;5018293;28;20106;-84
2021/11/06 10:48:38;;;;;;;17.77;11.68;;;20.00;99.90;;;;;;5016670;28;20545;-81
2021/11/06 10:51:11;;;;;;;17.40;11.55;;;20.00;99.90;;;;;;5017986;28;20052;-83
2021/11/06 10:53:52;;;;;;;17.55;11.65;;;20.00;99.90;;;;;;5018662;28;20483;-83
2021/11/06 10:56:41;;;;;;;16.23;11.43;;;20.00;99.90;;;;;;5017089;28;20030;-82
2021/11/06 10:59:16;;;;;;;16.75;11.75;;;20.00;99.90;;;;;;5016605;28;20026;-84
2021/11/06 11:01:56;;;;;;;19.15;11.93;;;20.00;99.90;;;;;;5018779;28;20541;-83
2021/11/06 11:04:25;;;;;;;15.07;11.30;;;20.00;99.90;;;;;;5001569;28;20029;-82
2021/11/06 11:06:58;;;;;;;20.13;11.80;;;20.00;99.90;;;;;;5018190;28;20111;-83
2021/11/06 11:09:34;;;;;;;15.88;12.07;;;20.00;99.90;;;;;;5016919;28;20394;-83
2021/11/06 11:12:02;;;;;;;18.85;11.77;;;20.00;99.90;;;;;;5016797;28;20021;-83
2021/11/06 11:14:32;;;;;;;17.52;12.43;;;20.00;99.90;;;;;;5018361;28;20364;-83
2021/11/06 11:17:01;;;;;;;21.67;11.38;;;19.90;99.90;;;;;;5018817;28;20068;-82
2021/11/06 11:19:36;;;;;;;20.50;12.00;;;19.90;99.90;;;;;;5018370;28;20084;-83
2021/11/06 11:22:05;;;;;;;18.83;11.65;;;19.90;99.90;;;;;;5018376;28;20018;-83
2021/11/06 11:24:33;;;;;;;23.65;11.75;;;19.90;99.90;;;;;;5016687;28;20029;-83
2021/11/06 11:27:00;;;;;;;16.15;11.60;;;19.90;99.90;;;;;;5018045;28;20049;-83
2021/11/06 11:29:35;;;;;;;23.38;11.55;;;19.90;99.90;;;;;;5016892;28;20078;-84
2021/11/06 11:32:04;;;;;;;17.65;11.23;;;19.90;99.90;;;;;;5017375;28;20034;-82
2021/11/06 11:34:32;;;;;;;21.98;11.98;;;19.80;99.90;;;;;;5016985;28;20084;-82
2021/11/06 11:37:00;;;;;;;18.77;11.95;;;19.80;99.90;;;;;;5000440;28;20030;-84
2021/11/06 11:39:28;;;;;;;19.98;11.23;;;19.90;99.90;;;;;;5015573;28;20102;-83
2021/11/06 11:42:16;;;;;;;19.33;11.60;;;19.80;99.90;;;;;;5015319;28;20022;-84
2021/11/06 11:45:20;;;;;;;25.05;11.98;;;19.80;99.90;;;;;;5016063;28;20029;-83
2021/11/06 11:48:00;;;;;;;18.95;11.20;;;19.80;99.90;;;;;;5015051;28;20040;-84
2021/11/06 11:50:35;;;;;;;23.00;11.85;;;19.80;99.90;;;;;;5013957;28;20022;-84
2021/11/06 11:53:06;;;;;;;17.60;12.13;;;19.80;99.90;;;;;;5014344;28;20040;-83
2021/11/06 11:55:44;;;;;;;18.17;11.45;;;19.90;99.90;;;;;;5015863;28;20034;-84
2021/11/06 11:58:25;;;;;;;21.08;12.27;;;19.70;99.90;;;;;;5014439;28;20026;-84
2021/11/06 12:00:58;;;;;;;18.65;11.95;;;19.70;99.90;;;;;;5013710;28;20026;-82
2021/11/06 12:03:46;;;;;;;22.02;12.40;;;19.70;99.90;;;;;;5013916;28;20087;-84
2021/11/06 12:06:22;;;;;;;18.30;11.35;;;19.60;99.90;;;;;;5015128;28;20132;-84
2021/11/06 12:08:57;;;;;;;16.50;10.60;;;19.60;99.90;;;;;;5016303;28;20030;-84
2021/11/06 12:11:30;;;;;;;15.57;11.80;;;19.60;99.90;;;;;;5014979;28;20018;-83
2021/11/06 12:13:59;;;;;;;20.17;11.98;;;19.60;99.90;;;;;;5014423;28;20026;-84
2021/11/06 12:16:52;;;;;;;14.10;11.45;;;19.50;99.90;;;;;;5015545;28;20014;-82
2021/11/06 12:19:46;;;;;;;18.35;12.32;;;19.50;99.90;;;;;;5015121;28;20022;-84
2021/11/06 12:22:32;;;;;;;20.48;12.02;;;19.50;99.90;;;;;;5015173;28;20049;-83
2021/11/06 12:25:23;;;;;;;25.70;12.23;;;19.50;99.90;;;;;;5014161;28;20030;-83
2021/11/06 12:28:01;;;;;;;20.95;11.82;;;19.40;99.90;;;;;;5013736;28;20461;-83
2021/11/06 12:30:35;;;;;;;21.50;11.75;;;19.40;99.90;;;;;;5015544;28;20030;-83
2021/11/06 12:33:07;;;;;;;17.15;11.48;;;19.30;99.90;;;;;;5014307;28;20030;-84
2021/11/06 12:35:34;;;;;;;14.82;11.45;;;19.30;99.90;;;;;;5013344;28;20022;-83
2021/11/06 12:38:05;;;;;;;17.55;11.57;;;19.30;99.90;;;;;;5013672;28;20062;-84
2021/11/06 12:40:38;;;;;;;18.85;12.30;;;19.20;99.90;;;;;;5015418;28;20018;-83
2021/11/06 12:43:11;;;;;;;21.88;12.57;;;19.20;99.90;;;;;;5015603;28;20132;-84
2021/11/06 12:45:43;;;;;;;17.52;11.85;;;19.20;99.90;;;;;;5014237;28;20447;-83
2021/11/06 12:48:19;;;;;;;14.20;11.57;;;19.10;99.90;;;;;;5015030;28;20018;-84
2021/11/06 12:51:08;;;;;;;21.38;12.57;;;19.00;99.90;;;;;;5014320;28;20030;-84
2021/11/06 12:54:00;;;;;;;18.60;12.50;;;19.00;99.90;;;;;;5013937;28;20038;-84